Time;durP1;ratioP1;P1;durP2;ratioP2;P2;SDS_P1;SDS_P2;PMS_P1;PMS_P2;Temp;Humidity;BMP_temperature;BMP_pressure;BME280_temperature;BME280_humidity;BME280_pressure;Samples;Min_cycle;Max_cycle;Signal;HPM_P1;HPM_P2
2021/09/18 00:01:13;;;;;;;6.00;5.40;;;;;;;9.93;87.33;95584.88;6140485;23;20155;-78
2021/09/18 00:03:38;;;;;;;6.60;5.47;;;;;;;9.91;87.14;95587.59;6140087;23;20170;-77
2021/09/18 00:06:04;;;;;;;6.87;5.80;;;;;;;9.90;86.93;95582.56;6164820;23;20171;-79
2021/09/18 00:08:29;;;;;;;8.90;5.83;;;;;;;9.86;87.17;95586.38;6141172;23;20182;-79
2021/09/18 00:10:54;;;;;;;6.87;5.33;;;;;;;9.88;87.15;95581.88;6165174;23;20152;-79
2021/09/18 00:13:20;;;;;;;5.97;5.40;;;;;;;9.86;87.01;95581.19;6165891;23;20202;-78
2021/09/18 00:15:45;;;;;;;8.40;5.50;;;;;;;9.83;86.63;95581.50;6168488;23;20202;-77
2021/09/18 00:18:10;;;;;;;6.23;5.47;;;;;;;9.80;86.43;95587.75;6166514;23;20497;-79
2021/09/18 00:20:36;;;;;;;8.10;5.70;;;;;;;9.79;86.11;95585.31;6166485;23;20594;-79
2021/09/18 00:23:02;;;;;;;6.00;5.43;;;;;;;9.76;86.14;95589.00;6168551;23;20179;-78
2021/09/18 00:25:27;;;;;;;7.30;5.00;;;;;;;9.75;85.84;95589.16;6165028;23;20179;-79
2021/09/18 00:27:53;;;;;;;6.53;5.40;;;;;;;9.74;85.90;95590.94;6168608;23;20182;-78
2021/09/18 00:30:19;;;;;;;6.10;5.50;;;;;;;9.72;86.05;95581.66;6166760;23;20194;-77
2021/09/18 00:32:44;;;;;;;6.70;5.67;;;;;;;9.72;86.06;95586.84;6139852;23;20170;-78
2021/09/18 00:35:10;;;;;;;6.43;5.03;;;;;;;9.72;85.55;95582.50;6139443;23;20187;-79
2021/09/18 00:37:35;;;;;;;7.07;5.87;;;;;;;9.68;85.60;95586.31;6165190;23;20625;-79
2021/09/18 00:40:01;;;;;;;7.23;4.83;;;;;;;9.69;85.98;95592.31;6163856;23;20151;-78
2021/09/18 00:42:26;;;;;;;6.47;5.07;;;;;;;9.68;85.66;95588.91;6141153;23;20163;-79
2021/09/18 00:44:52;;;;;;;6.20;5.10;;;;;;;9.67;85.74;95589.03;6165445;23;20222;-79
2021/09/18 00:47:17;;;;;;;6.93;6.23;;;;;;;9.64;85.93;95584.97;6167574;23;20187;-79
2021/09/18 00:49:43;;;;;;;6.53;5.10;;;;;;;9.64;86.36;95590.16;6159299;23;20156;-80
2021/09/18 00:52:08;;;;;;;6.20;5.60;;;;;;;9.62;86.37;95592.03;6135901;23;20183;-78
2021/09/18 00:54:33;;;;;;;6.40;5.70;;;;;;;9.57;86.39;95584.72;6135072;23;20262;-79
2021/09/18 00:56:59;;;;;;;6.23;5.60;;;;;;;9.57;85.93;95586.47;6135219;23;20171;-79
2021/09/18 00:59:24;;;;;;;7.13;5.70;;;;;;;9.55;86.25;95591.81;6160332;23;20186;-78
2021/09/18 01:01:50;;;;;;;6.47;5.37;;;;;;;9.55;86.42;95586.63;6161168;23;20151;-78
2021/09/18 01:04:15;;;;;;;6.13;5.53;;;;;;;9.55;86.73;95589.22;6134539;23;20613;-78
2021/09/18 01:06:40;;;;;;;7.40;6.17;;;;;;;9.54;86.43;95590.19;6159575;23;20187;-79
2021/09/18 01:09:06;;;;;;;8.93;5.23;;;;;;;9.52;86.13;95584.28;6159744;23;20598;-79
2021/09/18 01:11:31;;;;;;;5.33;4.83;;;;;;;9.52;86.41;95586.06;6159445;23;20250;-79
2021/09/18 01:13:57;;;;;;;7.10;5.10;;;;;;;9.51;87.00;95585.25;6133834;23;20225;-78
2021/09/18 01:16:23;;;;;;;5.97;5.37;;;;;;;9.49;87.02;95578.59;6134947;23;20186;-78
2021/09/18 01:18:48;;;;;;;6.60;6.00;;;;;;;9.48;86.61;95584.72;6135016;23;20163;-79
2021/09/18 01:21:14;;;;;;;7.00;5.70;;;;;;;9.48;86.09;95577.78;6141272;23;20166;-77
2021/09/18 01:23:39;;;;;;;5.40;4.90;;;;;;;9.46;86.51;95578.88;6134596;23;20187;-78
2021/09/18 01:26:05;;;;;;;6.23;5.50;;;;;;;9.46;86.45;95578.88;6135456;23;20533;-77
2021/09/18 01:28:30;;;;;;;8.03;5.77;;;;;;;9.42;86.51;95575.72;6160741;23;20198;-78
2021/09/18 01:30:55;;;;;;;6.03;5.50;;;;;;;9.44;86.51;95576.41;6160138;23;20155;-78
2021/09/18 01:33:21;;;;;;;6.60;5.97;;;;;;;9.45;86.64;95577.22;6161042;23;20163;-78
2021/09/18 01:35:47;;;;;;;7.40;5.40;;;;;;;9.46;86.50;95578.88;6160469;23;20553;-78
2021/09/18 01:38:12;;;;;;;6.83;6.13;;;;;;;9.45;86.61;95578.03;6137117;23;20464;-77
2021/09/18 01:40:40;;;;;;;6.30;5.70;;;;;;;9.47;86.71;95580.50;6161054;23;20239;-77
2021/09/18 01:43:06;;;;;;;6.97;5.83;;;;;;;9.44;87.23;95571.22;6137872;23;20194;-77
2021/09/18 01:45:33;;;;;;;7.10;6.23;;;;;;;9.44;86.53;95568.63;6162031;23;20252;-78
2021/09/18 01:48:01;;;;;;;6.07;5.43;;;;;;;9.43;86.50;95569.59;6140883;23;20179;-77
2021/09/18 01:50:38;;;;;;;10.43;5.93;;;;;;;9.45;86.47;95572.84;6169942;23;20441;-77
2021/09/18 01:53:05;;;;;;;6.73;6.13;;;;;;;9.44;86.20;95575.59;6170652;23;20143;-77
2021/09/18 01:55:31;;;;;;;5.87;5.40;;;;;;;9.38;86.61;95573.56;6171123;23;20250;-76
2021/09/18 01:57:57;;;;;;;7.73;6.17;;;;;;;9.37;nan;95567.56;6173633;23;20144;-77
2021/09/18 02:00:23;;;;;;;6.20;5.47;;;;;;;9.34;85.98;95566.06;6123097;23;20226;-79
2021/09/18 02:02:49;;;;;;;6.20;5.60;;;;;;;9.33;86.28;95567.00;6171874;23;20155;-77
2021/09/18 02:05:18;;;;;;;6.33;5.73;;;;;;;9.36;86.10;95566.75;6170928;23;20182;-77
2021/09/18 02:07:44;;;;;;;6.23;5.67;;;;;;;9.39;85.97;95562.25;6145826;23;20175;-78
2021/09/18 02:10:12;;;;;;;7.53;6.70;;;;;;;9.35;85.96;95561.69;6146404;23;20344;-78
2021/09/18 02:12:37;;;;;;;7.20;6.60;;;;;;;9.41;85.87;95563.72;6145547;23;20604;-79
2021/09/18 02:15:04;;;;;;;7.33;6.63;;;;;;;9.35;85.81;95554.72;6145118;23;20179;-78
2021/09/18 02:17:29;;;;;;;7.93;7.23;;;;;;;9.39;85.71;95562.25;6169680;23;20171;-79
2021/09/18 02:19:55;;;;;;;8.43;6.90;;;;;;;9.36;85.98;95560.72;6171250;23;20209;-77
2021/09/18 02:22:20;;;;;;;10.23;7.47;;;;;;;9.38;86.09;95564.03;6168942;23;20155;-76
2021/09/18 02:24:45;;;;;;;6.93;6.23;;;;;;;9.36;86.11;95564.16;6170102;23;20171;-78
2021/09/18 02:27:11;;;;;;;8.00;7.20;;;;;;;9.34;86.13;95558.28;6168236;23;20172;-78
2021/09/18 02:29:36;;;;;;;7.80;7.10;;;;;;;9.41;85.96;95555.13;6171092;23;20155;-79
2021/09/18 02:32:02;;;;;;;8.20;7.40;;;;;;;9.41;86.14;95558.53;6141958;23;20158;-77
2021/09/18 02:34:27;;;;;;;8.27;7.30;;;;;;;9.40;86.05;95558.69;6142390;23;20159;-76
2021/09/18 02:36:52;;;;;;;7.97;7.17;;;;;;;9.38;85.78;95558.03;6167567;23;20186;-78
2021/09/18 02:39:18;;;;;;;7.80;7.10;;;;;;;9.34;85.96;95553.09;6160593;23;20159;-77
2021/09/18 02:41:43;;;;;;;7.43;6.67;;;;;;;9.32;86.11;95561.97;6136783;23;20606;-77
2021/09/18 02:44:08;;;;;;;9.50;6.43;;;;;;;9.30;86.04;95559.53;6160070;23;20157;-78
2021/09/18 02:46:34;;;;;;;10.53;7.33;;;;;;;9.28;86.37;95558.84;6161486;23;20179;-77
2021/09/18 02:48:59;;;;;;;7.30;6.23;;;;;;;9.24;86.54;95562.66;6161574;23;20159;-78
2021/09/18 02:51:24;;;;;;;7.27;6.53;;;;;;;9.24;86.52;95557.47;6160990;23;20592;-77
2021/09/18 02:53:50;;;;;;;8.73;6.90;;;;;;;9.25;86.43;95560.88;6161482;23;20162;-77
2021/09/18 02:56:15;;;;;;;7.43;6.73;;;;;;;9.22;86.55;95556.81;6161303;23;20186;-80
2021/09/18 02:58:40;;;;;;;7.57;6.50;;;;;;;9.21;86.78;95552.59;6161913;23;20162;-78
2021/09/18 03:01:05;;;;;;;12.03;7.27;;;;;;;9.17;86.70;95551.22;6162983;23;20189;-78
2021/09/18 03:03:31;;;;;;;7.53;6.83;;;;;;;9.18;87.24;95547.66;6163080;23;20286;-77
2021/09/18 03:05:56;;;;;;;7.90;7.10;;;;;;;9.16;87.12;95554.75;6163225;23;20171;-77
2021/09/18 03:08:22;;;;;;;7.17;6.57;;;;;;;9.15;86.71;95547.13;6163633;23;20202;-77
2021/09/18 03:10:47;;;;;;;8.73;7.13;;;;;;;9.15;87.06;95541.97;6164062;23;20493;-78
2021/09/18 03:13:13;;;;;;;8.07;6.83;;;;;;;9.16;87.17;95544.41;6163693;23;20228;-77
2021/09/18 03:15:38;;;;;;;7.93;7.13;;;;;;;9.19;87.12;95543.31;6138155;23;20175;-78
2021/09/18 03:18:03;;;;;;;8.50;7.57;;;;;;;9.24;86.90;95547.13;6138634;23;20170;-78
2021/09/18 03:20:29;;;;;;;8.87;7.67;;;;;;;9.21;87.43;95547.41;6162945;23;20491;-78
2021/09/18 03:22:54;;;;;;;10.00;7.87;;;;;;;9.22;87.44;95543.84;6161970;23;20159;-76
2021/09/18 03:25:19;;;;;;;8.53;7.37;;;;;;;9.23;87.59;95544.66;6137124;23;20656;-78
2021/09/18 03:27:45;;;;;;;8.37;7.43;;;;;;;9.21;87.52;95542.22;6162717;23;20198;-77
2021/09/18 03:30:10;;;;;;;7.57;6.87;;;;;;;9.21;87.25;95542.22;6139815;23;20606;-77
2021/09/18 03:32:35;;;;;;;8.13;7.33;;;;;;;9.22;87.33;95543.84;6162833;23;20182;-78
2021/09/18 03:35:02;;;;;;;8.20;6.83;;;;;;;9.21;87.55;95544.00;6161824;23;20182;-78
2021/09/18 03:37:27;;;;;;;7.97;7.17;;;;;;;9.29;87.43;95544.13;6162698;23;20252;-78
2021/09/18 03:39:52;;;;;;;9.10;7.47;;;;;;;9.26;87.40;95541.78;6137257;23;20159;-78
2021/09/18 03:42:18;;;;;;;9.43;7.50;;;;;;;9.25;87.49;95537.56;6164075;23;20151;-78
2021/09/18 03:44:43;;;;;;;8.97;7.70;;;;;;;9.26;87.56;95540.03;6137040;23;20170;-77
2021/09/18 03:47:08;;;;;;;9.67;8.07;;;;;;;9.26;87.44;95537.44;6138655;23;20180;-77
2021/09/18 03:49:34;;;;;;;8.57;7.67;;;;;;;9.25;87.63;95533.22;6138150;23;20222;-76
2021/09/18 03:51:59;;;;;;;8.77;7.50;;;;;;;9.25;87.30;95534.97;6163484;23;20183;-77
2021/09/18 03:54:24;;;;;;;8.40;7.50;;;;;;;9.24;87.22;95539.34;6137937;23;20170;-78
2021/09/18 03:56:50;;;;;;;10.07;7.67;;;;;;;9.31;87.42;95532.66;6137290;23;20182;-77
2021/09/18 03:59:16;;;;;;;9.47;8.27;;;;;;;9.29;87.36;95531.16;6162537;23;20605;-78
2021/09/18 04:01:41;;;;;;;9.03;8.03;;;;;;;9.27;87.66;95533.88;6139498;23;20241;-77
2021/09/18 04:04:06;;;;;;;10.97;7.77;;;;;;;9.26;87.98;95529.66;6137868;23;20163;-78
2021/09/18 04:06:32;;;;;;;8.63;7.63;;;;;;;9.23;87.58;95535.13;6163239;23;20217;-77
2021/09/18 04:08:57;;;;;;;9.07;7.80;;;;;;;9.21;87.38;95531.03;6163575;23;20158;-78
2021/09/18 04:11:22;;;;;;;9.90;7.90;;;;;;;9.19;87.21;95533.78;6138238;23;20197;-78
2021/09/18 04:13:48;;;;;;;9.03;7.97;;;;;;;9.17;87.31;95533.09;6162744;23;20155;-77
2021/09/18 04:16:13;;;;;;;8.17;7.33;;;;;;;9.20;87.27;95539.78;6163175;23;20175;-79
2021/09/18 04:18:38;;;;;;;9.90;7.97;;;;;;;9.16;87.53;95530.63;6165108;23;20151;-79
2021/09/18 04:21:04;;;;;;;8.60;7.43;;;;;;;9.18;87.79;95542.47;6163017;23;20664;-78
2021/09/18 04:23:32;;;;;;;9.33;8.43;;;;;;;9.22;88.03;95538.69;6137777;23;20159;-76
2021/09/18 04:25:58;;;;;;;12.43;8.87;;;;;;;9.28;87.70;95547.69;6162472;23;20176;-77
2021/09/18 04:28:23;;;;;;;10.53;9.43;;;;;;;9.31;88.30;95540.44;6163118;23;20176;-78
2021/09/18 04:30:48;;;;;;;9.57;8.57;;;;;;;9.32;88.20;95542.06;6140328;23;20160;-77
2021/09/18 04:33:14;;;;;;;12.13;9.63;;;;;;;9.36;88.71;95546.03;6138931;23;20160;-79
2021/09/18 04:35:40;;;;;;;10.97;9.57;;;;;;;9.47;88.33;95550.22;6163676;23;20171;-79
2021/09/18 04:38:05;;;;;;;11.40;9.37;;;;;;;9.52;88.13;95549.78;6164811;23;20154;-78
2021/09/18 04:40:31;;;;;;;10.70;9.50;;;;;;;9.52;88.38;95554.97;6138213;23;20159;-77
2021/09/18 04:42:56;;;;;;;11.20;9.07;;;;;;;9.57;87.62;95551.00;6139537;23;20160;-78
2021/09/18 04:45:21;;;;;;;9.57;8.43;;;;;;;9.58;87.63;95552.63;6162951;23;20533;-78
2021/09/18 04:47:47;;;;;;;10.23;9.20;;;;;;;9.62;87.40;95550.56;6164393;23;20180;-78
2021/09/18 04:50:12;;;;;;;10.90;9.80;;;;;;;9.61;87.45;95554.13;6164084;23;20186;-78
2021/09/18 04:52:37;;;;;;;10.80;8.87;;;;;;;9.65;87.39;95558.91;6166452;23;20270;-78
2021/09/18 04:55:03;;;;;;;10.50;9.47;;;;;;;9.65;87.52;95569.25;6163126;23;20187;-78
2021/09/18 04:57:28;;;;;;;12.33;9.80;;;;;;;9.63;87.47;95563.41;6139905;23;20152;-76
2021/09/18 04:59:53;;;;;;;11.07;9.80;;;;;;;9.65;87.35;95564.09;6164338;23;20166;-76
2021/09/18 05:02:19;;;;;;;10.23;8.50;;;;;;;9.73;86.75;95565.97;6165569;23;20159;-77
2021/09/18 05:04:44;;;;;;;9.67;8.67;;;;;;;9.73;87.17;95572.94;6167388;23;20158;-78
2021/09/18 05:07:09;;;;;;;10.73;9.23;;;;;;;9.73;87.36;95570.34;6164237;23;20254;-77
2021/09/18 05:09:35;;;;;;;10.13;9.13;;;;;;;9.75;86.81;95569.22;6164754;23;20152;-77
2021/09/18 05:12:00;;;;;;;9.10;7.77;;;;;;;9.86;86.43;95579.41;6165505;23;20163;-78
2021/09/18 05:14:25;;;;;;;9.23;8.17;;;;;;;9.84;86.55;95568.38;6166712;23;20151;-77
2021/09/18 05:16:51;;;;;;;9.23;8.13;;;;;;;9.82;86.50;95569.50;6166827;23;20191;-77
2021/09/18 05:19:16;;;;;;;8.47;7.50;;;;;;;9.85;86.46;95567.41;6139436;23;20155;-79
2021/09/18 05:21:42;;;;;;;9.00;7.30;;;;;;;9.91;85.92;95572.03;6163955;23;20155;-78
2021/09/18 05:24:07;;;;;;;7.60;6.90;;;;;;;9.95;86.14;95569.97;6162029;23;20152;-78
2021/09/18 05:26:32;;;;;;;7.73;6.87;;;;;;;9.95;85.84;95572.56;6163719;23;20330;-78
2021/09/18 05:28:58;;;;;;;10.40;7.13;;;;;;;9.97;85.69;95567.22;6140096;23;20238;-77
2021/09/18 05:31:23;;;;;;;7.73;6.10;;;;;;;9.99;85.60;95570.53;6164494;23;20163;-78
2021/09/18 05:33:48;;;;;;;7.20;6.57;;;;;;;10.02;85.65;95572.81;6164198;23;20159;-78
2021/09/18 05:36:14;;;;;;;6.53;5.93;;;;;;;10.04;85.42;95569.09;6140399;23;20194;-78
2021/09/18 05:38:39;;;;;;;7.67;6.97;;;;;;;10.06;85.42;95568.97;6139790;23;20606;-78
2021/09/18 05:41:04;;;;;;;6.87;6.27;;;;;;;10.08;85.68;95577.44;6167262;23;20159;-79
2021/09/18 05:43:30;;;;;;;7.83;6.20;;;;;;;10.12;85.64;95573.59;6147089;23;20212;-76
2021/09/18 05:45:55;;;;;;;7.40;6.47;;;;;;;10.17;85.55;95572.19;6147895;23;20175;-79
2021/09/18 05:48:20;;;;;;;7.77;6.97;;;;;;;10.22;85.94;95579.56;6149003;23;20175;-78
2021/09/18 05:50:45;;;;;;;11.17;6.57;;;;;;;10.27;85.81;95576.56;6174314;23;20156;-77
2021/09/18 05:53:13;;;;;;;6.33;5.73;;;;;;;10.31;85.93;95585.66;6172129;23;20186;-77
2021/09/18 05:55:38;;;;;;;6.30;5.70;;;;;;;10.35;85.96;95580.06;6170275;23;20201;-79
2021/09/18 05:58:03;;;;;;;8.43;6.10;;;;;;;10.38;85.88;95579.75;6173703;23;20147;-78
2021/09/18 06:00:29;;;;;;;12.00;6.80;;;;;;;10.47;86.39;95584.06;6171409;23;20162;-77
2021/09/18 06:02:54;;;;;;;6.77;5.87;;;;;;;10.54;85.72;95586.09;6171519;23;20159;-78
2021/09/18 06:05:19;;;;;;;7.03;6.33;;;;;;;10.62;86.07;95586.19;6144502;23;20179;-78
2021/09/18 06:07:44;;;;;;;6.90;5.87;;;;;;;10.67;86.00;95589.97;6145747;23;20202;-78
2021/09/18 06:10:11;;;;;;;6.53;5.73;;;;;;;10.75;85.94;95591.81;6170478;23;20172;-77
2021/09/18 06:12:36;;;;;;;6.73;6.13;;;;;;;10.86;85.51;95594.19;6145947;23;20285;-79
2021/09/18 06:15:03;;;;;;;6.67;6.03;;;;;;;10.92;85.68;95588.41;6143752;23;20246;-75
2021/09/18 06:17:28;;;;;;;6.73;6.03;;;;;;;11.06;85.15;95598.31;6169028;23;20586;-77
2021/09/18 06:19:53;;;;;;;6.87;5.90;;;;;;;11.16;84.66;95595.63;6168872;23;20202;-75
2021/09/18 06:22:19;;;;;;;6.17;5.57;;;;;;;11.30;84.12;95596.84;6169967;23;20159;-80
2021/09/18 06:24:44;;;;;;;6.30;5.70;;;;;;;11.34;83.82;95600.78;6141447;23;20163;-79
2021/09/18 06:27:10;;;;;;;6.33;5.77;;;;;;;11.45;83.56;95602.34;6142092;23;20179;-79
2021/09/18 06:29:35;;;;;;;6.43;5.80;;;;;;;11.53;82.99;95598.00;6142875;23;20155;-78
2021/09/18 06:32:01;;;;;;;6.70;6.00;;;;;;;11.63;82.78;95598.72;6167322;23;20157;-80
2021/09/18 06:34:26;;;;;;;6.77;6.17;;;;;;;11.74;82.39;95599.44;6166180;23;20589;-80
2021/09/18 06:36:52;;;;;;;6.70;6.00;;;;;;;11.86;81.77;95596.47;6169628;23;20186;-78
2021/09/18 06:39:17;;;;;;;5.70;5.20;;;;;;;11.96;81.39;95601.56;6142565;23;20542;-78
2021/09/18 06:41:42;;;;;;;6.37;5.77;;;;;;;12.08;81.54;95602.09;6168600;23;20186;-78
2021/09/18 06:44:08;;;;;;;6.27;5.70;;;;;;;12.14;81.15;95601.50;6168582;23;20182;-77
2021/09/18 06:46:33;;;;;;;7.00;5.27;;;;;;;12.25;80.70;95600.38;6169163;23;20174;-77
2021/09/18 06:48:59;;;;;;;5.33;4.93;;;;;;;12.36;79.95;95602.69;6169071;23;20166;-78
2021/09/18 06:51:24;;;;;;;6.23;5.40;;;;;;;12.39;79.73;95600.63;6168998;23;20246;-77
2021/09/18 06:53:50;;;;;;;5.23;4.67;;;;;;;12.50;79.67;95601.31;6144601;23;20258;-77
2021/09/18 06:56:15;;;;;;;6.63;5.17;;;;;;;12.61;79.07;95608.81;6168551;23;20246;-77
2021/09/18 06:58:40;;;;;;;5.70;5.20;;;;;;;12.69;79.11;95612.25;6171553;23;20266;-77
2021/09/18 07:01:06;;;;;;;6.10;5.57;;;;;;;12.85;77.82;95616.69;6168559;23;20162;-77
2021/09/18 07:03:33;;;;;;;5.93;5.43;;;;;;;12.83;77.40;95612.63;6169088;23;20395;-75
2021/09/18 07:05:58;;;;;;;5.93;5.30;;;;;;;12.88;77.12;95620.78;6145005;23;20175;-77
2021/09/18 07:08:24;;;;;;;6.37;5.77;;;;;;;12.92;76.75;95616.88;6171099;23;20255;-78
2021/09/18 07:10:49;;;;;;;6.23;5.30;;;;;;;12.98;77.25;95619.66;6145692;23;20187;-77
2021/09/18 07:13:14;;;;;;;7.60;4.97;;;;;;;13.10;77.13;95625.38;6170857;23;20148;-77
2021/09/18 07:15:40;;;;;;;5.27;4.73;;;;;;;13.17;76.86;95617.75;6170154;23;20211;-79
2021/09/18 07:18:05;;;;;;;5.53;5.03;;;;;;;13.21;77.04;95613.84;6171687;23;20155;-78
2021/09/18 07:20:30;;;;;;;5.20;4.73;;;;;;;13.23;76.83;95614.50;6170379;23;20199;-78
2021/09/18 07:22:56;;;;;;;5.83;5.30;;;;;;;13.23;76.88;95617.91;6169711;23;20234;-78
2021/09/18 07:25:23;;;;;;;5.10;4.60;;;;;;;13.35;76.19;95620.22;6171531;23;20198;-78
2021/09/18 07:27:48;;;;;;;4.90;4.50;;;;;;;13.39;76.11;95621.53;6172356;23;20203;-77
2021/09/18 07:30:14;;;;;;;5.63;5.13;;;;;;;13.52;74.83;95624.47;6168307;23;20155;-78
2021/09/18 07:32:39;;;;;;;5.43;4.93;;;;;;;13.47;74.96;95624.94;6168725;23;20623;-77
2021/09/18 07:35:07;;;;;;;5.60;5.10;;;;;;;13.53;74.46;95628.69;6167861;23;20253;-78
2021/09/18 07:37:34;;;;;;;5.40;4.90;;;;;;;13.60;74.20;95627.03;6168580;23;20481;-76
2021/09/18 07:39:59;;;;;;;6.00;5.40;;;;;;;13.64;74.19;95624.94;6142174;23;20166;-78
2021/09/18 07:42:25;;;;;;;6.33;5.23;;;;;;;13.73;73.49;95632.59;6169065;23;20163;-77
2021/09/18 07:44:50;;;;;;;5.73;4.90;;;;;;;13.78;73.85;95630.31;6166832;23;20156;-77
2021/09/18 07:47:15;;;;;;;5.37;4.87;;;;;;;13.79;73.70;95629.34;6166471;23;20183;-78
2021/09/18 07:49:41;;;;;;;5.70;5.10;;;;;;;13.92;73.41;95628.81;6166833;23;20494;-78
2021/09/18 07:52:06;;;;;;;6.60;5.27;;;;;;;14.03;72.90;95631.06;6141188;23;20526;-77
2021/09/18 07:54:32;;;;;;;5.40;4.90;;;;;;;14.06;73.22;95637.78;6166619;23;20231;-78
2021/09/18 07:56:58;;;;;;;8.03;6.90;;;;;;;14.28;71.20;95634.44;6165650;23;20175;-77
2021/09/18 07:59:23;;;;;;;9.10;7.10;;;;;;;14.30;71.06;95634.25;6169021;23;20648;-77
2021/09/18 08:01:48;;;;;;;9.20;7.87;;;;;;;14.29;70.39;95630.84;6166585;23;20494;-78
2021/09/18 08:04:14;;;;;;;6.93;6.23;;;;;;;14.36;71.12;95633.59;6166305;23;20152;-77
2021/09/18 08:06:40;;;;;;;7.80;6.93;;;;;;;14.50;70.60;95635.53;6141901;23;20278;-78
2021/09/18 08:09:06;;;;;;;7.60;6.40;;;;;;;14.47;71.61;95628.03;6143117;23;20181;-78
2021/09/18 08:11:33;;;;;;;9.87;6.37;;;;;;;14.52;71.85;95635.38;6142264;23;20159;-79
2021/09/18 08:13:59;;;;;;;6.93;6.23;;;;;;;14.57;71.89;95633.03;6141018;23;20155;-78
2021/09/18 08:16:24;;;;;;;8.03;6.97;;;;;;;14.62;71.76;95634.19;6165534;23;20186;-76
2021/09/18 08:18:50;;;;;;;7.37;6.23;;;;;;;14.66;71.60;95639.88;6168902;23;20190;-78
2021/09/18 08:21:15;;;;;;;7.33;6.63;;;;;;;14.74;70.57;95638.03;6165636;23;20159;-77
2021/09/18 08:23:41;;;;;;;8.63;6.37;;;;;;;14.79;70.40;95642.75;6166005;23;20159;-78
2021/09/18 08:26:07;;;;;;;6.97;6.27;;;;;;;14.89;69.69;95638.13;6141580;23;20201;-78
2021/09/18 08:28:33;;;;;;;8.67;6.27;;;;;;;14.94;69.92;95646.28;6141728;23;20191;-77
2021/09/18 08:30:58;;;;;;;6.90;6.20;;;;;;;15.04;69.33;95640.03;6165767;23;20151;-78
2021/09/18 08:33:23;;;;;;;6.23;5.63;;;;;;;15.14;69.00;95644.03;6166588;23;20170;-76
2021/09/18 08:35:49;;;;;;;6.32;5.38;;;;;;;15.17;69.77;95650.72;6140502;23;20486;-76
2021/09/18 08:38:14;;;;;;;6.63;5.83;;;;;;;15.32;66.79;95643.75;6166587;23;20147;-77
2021/09/18 08:40:40;;;;;;;5.95;5.35;;;;;;;15.36;68.07;95641.59;6163805;23;20159;-77
2021/09/18 08:43:06;;;;;;;8.48;5.95;;;;;;;15.32;67.94;95646.38;6141205;23;20270;-77
2021/09/18 08:45:32;;;;;;;7.38;5.57;;;;;;;15.54;67.14;95656.00;6141008;23;20179;-77
2021/09/18 08:48:02;;;;;;;5.60;5.00;;;;;;;15.53;67.42;95649.13;6166136;23;20656;-78
2021/09/18 08:50:28;;;;;;;5.35;4.63;;;;;;;15.59;65.08;95651.06;6141181;23;20157;-77
2021/09/18 08:52:54;;;;;;;7.38;5.50;;;;;;;15.68;65.76;95654.47;6167224;23;20183;-77
2021/09/18 08:55:19;;;;;;;5.95;5.35;;;;;;;15.80;65.37;95650.41;6141371;23;20186;-78
2021/09/18 08:57:45;;;;;;;5.83;5.23;;;;;;;15.82;62.58;95658.94;6166768;23;20147;-77
2021/09/18 09:00:29;;;;;;;6.80;5.45;;;;;;;15.81;65.05;95649.47;6166505;23;20155;-78
2021/09/18 09:02:55;;;;;;;5.18;4.68;;;;;;;15.88;65.01;95654.78;6167817;23;20151;-78
2021/09/18 09:05:25;;;;;;;5.35;4.85;;;;;;;15.76;62.26;95653.59;6165458;23;20178;-77
2021/09/18 09:08:11;;;;;;;6.82;5.40;;;;;;;15.80;62.72;95655.66;6167285;23;20155;-78
2021/09/18 09:10:39;;;;;;;5.60;4.80;;;;;;;15.91;63.99;95654.44;6141113;23;20202;-78
2021/09/18 09:13:10;;;;;;;6.03;4.85;;;;;;;16.04;63.97;95651.19;6166287;23;20171;-76
2021/09/18 09:15:35;;;;;;;5.72;4.97;;;;;;;16.13;63.51;95652.75;6164717;23;20175;-78
2021/09/18 09:18:14;;;;;;;7.63;5.00;;;;;;;16.24;61.54;95651.47;6140973;23;20616;-78
2021/09/18 09:20:40;;;;;;;5.43;4.38;;;;;;;16.28;60.92;95650.16;6166460;23;20209;-77
2021/09/18 09:23:14;;;;;;;5.50;4.13;;;;;;;16.35;61.66;95648.44;6164971;23;20155;-78
2021/09/18 09:25:39;;;;;;;4.75;4.28;;;;;;;16.40;59.49;95656.56;6140738;23;20182;-78
2021/09/18 09:28:33;;;;;;;4.32;3.92;;;;;;;16.45;61.10;95648.97;6166121;23;20179;-78
2021/09/18 09:31:24;;;;;;;4.32;3.92;;;;;;;16.62;60.61;95647.78;6165538;23;20136;-78
2021/09/18 09:34:06;;;;;;;5.82;4.78;;;;;;;16.58;59.29;95645.69;6164564;23;20146;-78
2021/09/18 09:36:45;;;;;;;3.55;3.00;;;;;;;16.50;54.29;95651.03;6167350;23;20170;-77
2021/09/18 09:39:17;;;;;;;3.53;3.10;;;;;;;16.55;58.28;95643.44;6139561;23;20737;-77
2021/09/18 09:41:48;;;;;;;5.22;3.95;;;;;;;16.65;58.38;95630.88;6167941;23;20144;-77
2021/09/18 09:44:27;;;;;;;3.63;3.33;;;;;;;16.70;58.13;95642.47;6142637;23;20241;-79
2021/09/18 09:47:03;;;;;;;3.53;3.17;;;;;;;16.68;57.63;95649.69;6145980;23;20194;-77
2021/09/18 09:49:49;;;;;;;3.85;3.03;;;;;;;16.82;57.64;95640.19;6146616;23;20162;-78
2021/09/18 09:52:24;;;;;;;3.55;3.20;;;;;;;16.95;56.20;95642.94;6162975;23;20143;-78
2021/09/18 09:54:50;;;;;;;3.88;3.40;;;;;;;16.97;57.07;95643.59;6160504;23;20163;-78
2021/09/18 09:57:16;;;;;;;6.78;3.60;;;;;;;16.98;54.81;95644.41;6163566;23;20191;-78
2021/09/18 09:59:42;;;;;;;4.70;4.10;;;;;;;16.99;57.44;95646.03;6167645;23;20179;-78
2021/09/18 10:02:10;;;;;;;4.82;4.43;;;;;;;16.81;57.83;95638.56;6168323;23;20163;-78
2021/09/18 10:04:36;;;;;;;4.13;3.83;;;;;;;16.99;59.31;95646.03;6146379;23;20163;-78
2021/09/18 10:07:03;;;;;;;4.38;3.97;;;;;;;17.05;57.76;95647.94;6144107;23;20183;-78
2021/09/18 10:09:28;;;;;;;4.85;4.10;;;;;;;17.19;58.44;95651.50;6163701;23;20182;-78
2021/09/18 10:11:56;;;;;;;4.15;3.75;;;;;;;17.32;58.71;95645.59;6136388;23;20602;-77
2021/09/18 10:14:24;;;;;;;4.38;3.97;;;;;;;17.47;56.09;95641.06;6160649;23;20151;-80
2021/09/18 10:16:53;;;;;;;4.22;3.85;;;;;;;17.37;55.97;95645.81;6161464;23;20167;-79
2021/09/18 10:19:19;;;;;;;4.50;4.10;;;;;;;17.33;55.89;95637.53;6161629;23;20152;-78
2021/09/18 10:24:32;;;;;;;5.10;4.28;;;;;;;17.42;54.83;95638.22;6160741;23;20175;-79
2021/09/18 10:27:23;;;;;;;5.65;3.88;;;;;;;17.29;57.89;95641.50;6159942;23;20214;-78
2021/09/18 10:29:49;;;;;;;3.65;3.35;;;;;;;17.36;56.59;95633.69;6160190;23;20147;-78
2021/09/18 10:32:15;;;;;;;4.50;3.50;;;;;;;17.60;57.74;95643.81;6161585;23;20158;-77
2021/09/18 10:34:41;;;;;;;3.85;3.45;;;;;;;17.67;56.24;95642.06;6159627;23;20178;-78
2021/09/18 10:37:06;;;;;;;3.88;3.50;;;;;;;17.39;54.47;95636.75;6161304;23;20194;-78
2021/09/18 10:39:32;;;;;;;4.10;3.70;;;;;;;17.30;52.96;95639.69;6157707;23;20601;-78
2021/09/18 10:42:00;;;;;;;4.22;3.67;;;;;;;17.40;55.54;95633.13;6134298;23;20162;-78
2021/09/18 10:44:49;;;;;;;3.53;3.22;;;;;;;17.58;54.38;95637.97;6158949;23;20218;-78
2021/09/18 10:47:48;;;;;;;3.97;3.40;;;;;;;17.56;54.21;95637.31;6135057;23;20474;-78
2021/09/18 10:50:26;;;;;;;3.95;3.55;;;;;;;17.76;53.06;95633.09;6159129;23;20605;-79
2021/09/18 10:53:06;;;;;;;3.80;3.20;;;;;;;17.62;55.60;95631.31;6161245;23;20158;-77
2021/09/18 10:55:53;;;;;;;3.20;2.70;;;;;;;17.64;52.85;95629.31;6158369;23;20640;-78
2021/09/18 10:58:19;;;;;;;2.88;2.58;;;;;;;17.80;53.46;95633.50;6161407;23;20139;-78
2021/09/18 11:00:50;;;;;;;3.10;2.80;;;;;;;17.94;51.93;95632.63;6161805;23;20155;-79
2021/09/18 11:03:32;;;;;;;4.07;3.67;;;;;;;17.90;53.02;95634.00;6138311;23;20604;-77
2021/09/18 11:05:58;;;;;;;3.40;3.20;;;;;;;17.98;51.75;95636.47;6160856;23;20199;-78
2021/09/18 11:08:25;;;;;;;3.00;2.80;;;;;;;18.03;50.06;95633.28;6136946;23;20179;-78
2021/09/18 11:10:58;;;;;;;2.55;2.33;;;;;;;17.99;50.97;95632.84;6161673;23;20194;-77
2021/09/18 11:13:26;;;;;;;4.10;3.25;;;;;;;18.06;52.21;95627.66;6163737;23;20574;-78
2021/09/18 11:15:57;;;;;;;3.75;3.45;;;;;;;17.87;53.50;95623.06;6136378;23;20199;-79
2021/09/18 11:18:22;;;;;;;3.65;3.35;;;;;;;17.71;52.75;95617.06;6137248;23;20215;-80
2021/09/18 11:20:48;;;;;;;3.63;3.33;;;;;;;17.83;51.27;95620.00;6162827;23;20151;-78
2021/09/18 11:23:36;;;;;;;3.00;2.70;;;;;;;17.97;51.06;95615.66;6162683;23;20158;-78
2021/09/18 11:26:01;;;;;;;5.03;3.88;;;;;;;17.59;51.20;95610.69;6141250;23;20199;-78
2021/09/18 11:28:36;;;;;;;5.85;3.15;;;;;;;17.99;52.80;95616.28;6165135;23;20179;-78
2021/09/18 11:31:08;;;;;;;3.47;2.83;;;;;;;18.03;52.21;95623.59;6141471;23;20246;-78
2021/09/18 11:33:33;;;;;;;4.20;3.47;;;;;;;18.02;53.11;95616.72;6162724;23;20143;-77
2021/09/18 11:36:02;;;;;;;4.28;3.08;;;;;;;17.82;51.55;95621.81;6138115;23;20183;-79
2021/09/18 11:38:30;;;;;;;3.80;3.47;;;;;;;17.56;51.97;95611.06;6163050;23;20187;-77